createdAt,value
2018-06-30T00:02:15.141Z,7.10
2018-06-30T00:04:48.765Z,7.47
2018-06-30T00:07:17.174Z,7.00
2018-06-30T00:09:45.548Z,7.23
2018-06-30T00:12:13.995Z,6.90
2018-06-30T00:14:42.415Z,6.53
2018-06-30T00:17:11.143Z,8.17
2018-06-30T00:19:39.558Z,7.50
2018-06-30T00:22:07.951Z,7.33
2018-06-30T00:24:36.537Z,8.07
2018-06-30T00:27:10.283Z,6.37
2018-06-30T00:29:39.819Z,7.07
2018-06-30T00:32:08.161Z,7.03
2018-06-30T00:34:36.621Z,7.40
2018-06-30T00:37:05.025Z,7.50
2018-06-30T00:39:33.373Z,7.30
2018-06-30T00:42:01.423Z,7.27
2018-06-30T00:44:29.800Z,7.33
2018-06-30T00:46:58.188Z,7.20
2018-06-30T00:49:26.605Z,7.20
2018-06-30T00:51:54.948Z,8.20
2018-06-30T00:54:23.326Z,6.60
2018-06-30T00:56:51.760Z,8.17
2018-06-30T00:59:20.080Z,8.10
2018-06-30T01:01:48.439Z,7.13
2018-06-30T01:04:16.758Z,7.23
2018-06-30T01:06:45.185Z,7.13
2018-06-30T01:09:13.606Z,7.53
2018-06-30T01:11:41.988Z,7.67
2018-06-30T01:14:10.363Z,7.53
2018-06-30T01:16:38.802Z,7.27
2018-06-30T01:19:07.281Z,8.03
2018-06-30T01:21:35.713Z,7.30
2018-06-30T01:24:04.098Z,7.27
2018-06-30T01:26:33.495Z,6.90
2018-06-30T01:29:01.969Z,7.13
2018-06-30T01:31:30.361Z,6.83
2018-06-30T01:33:59.046Z,7.20
2018-06-30T01:36:27.551Z,7.57
2018-06-30T07:38:52.336Z,5.73
2018-06-30T07:41:20.849Z,4.30
2018-06-30T07:43:49.232Z,5.00
2018-06-30T07:46:17.593Z,5.07
2018-06-30T07:48:46.285Z,4.70
2018-06-30T07:51:15.145Z,4.60
2018-06-30T07:53:43.563Z,4.60
2018-06-30T07:56:12.191Z,4.60
2018-06-30T07:58:40.677Z,4.87
2018-06-30T08:01:09.113Z,4.90
2018-06-30T08:03:38.281Z,6.37
2018-06-30T08:06:07.338Z,5.00
2018-06-30T08:08:36.385Z,5.67
2018-06-30T08:11:09.867Z,5.00
2018-06-30T08:13:39.535Z,5.07
2018-06-30T08:16:10.110Z,5.20
2018-06-30T08:18:39.076Z,5.33
2018-06-30T08:21:07.652Z,4.77
2018-06-30T08:39:25.714Z,5.23
2018-06-30T08:42:15.965Z,5.00
2018-06-30T08:44:45.841Z,6.10
2018-06-30T08:47:15.627Z,4.63
2018-06-30T08:49:44.393Z,5.00
2018-06-30T08:52:13.346Z,5.03
2018-06-30T08:54:43.360Z,4.80
2018-06-30T08:57:18.878Z,5.30
2018-06-30T08:59:48.689Z,5.13
2018-06-30T09:02:17.967Z,4.90
2018-06-30T09:04:47.620Z,4.77
2018-06-30T09:07:16.918Z,4.67
2018-06-30T09:46:22.517Z,4.10
2018-06-30T09:48:53.019Z,4.40
2018-06-30T09:51:21.759Z,4.10
2018-06-30T09:53:50.496Z,5.17
2018-06-30T09:56:20.135Z,4.67
2018-06-30T09:58:49.442Z,4.60
2018-06-30T10:01:20.138Z,3.80
2018-06-30T10:03:48.814Z,4.03
2018-06-30T10:06:17.747Z,4.10
2018-06-30T10:08:46.634Z,3.90
2018-06-30T10:11:15.768Z,4.30
2018-06-30T10:13:44.954Z,4.50
2018-06-30T10:16:18.293Z,4.40
2018-06-30T10:18:48.042Z,4.40
2018-06-30T10:21:21.630Z,4.50
2018-06-30T10:23:57.567Z,3.83
2018-06-30T10:26:26.922Z,3.60
2018-06-30T10:28:58.585Z,3.43
2018-06-30T10:31:27.995Z,4.33
2018-06-30T10:33:57.830Z,3.60
2018-06-30T10:36:27.286Z,2.77
2018-06-30T10:38:57.502Z,3.60
2018-06-30T10:41:27.977Z,3.77
2018-06-30T10:43:57.397Z,3.50
2018-06-30T10:46:32.801Z,3.50
2018-06-30T10:49:01.931Z,3.77
2018-06-30T10:51:31.937Z,3.73
2018-06-30T10:54:00.721Z,4.10
2018-06-30T10:56:29.917Z,3.80
2018-06-30T10:58:59.077Z,3.70
2018-06-30T11:01:28.069Z,3.60
2018-06-30T11:03:57.805Z,3.00
2018-06-30T11:06:26.877Z,3.80
2018-06-30T11:08:55.523Z,3.70
2018-06-30T11:11:29.117Z,3.50
2018-06-30T11:13:57.922Z,3.60
2018-06-30T11:16:27.108Z,3.80
2018-06-30T11:18:56.801Z,3.80
2018-06-30T11:21:25.967Z,3.20
2018-06-30T11:26:29.426Z,4.40
2018-06-30T11:28:59.803Z,3.80
2018-06-30T11:31:30.032Z,3.90
2018-06-30T11:34:12.771Z,3.27
2018-06-30T11:36:48.936Z,3.70
2018-06-30T11:39:25.244Z,3.30
2018-06-30T11:41:54.510Z,3.70
2018-06-30T11:44:33.266Z,3.20
2018-06-30T11:53:07.970Z,4.07
2018-06-30T11:55:36.789Z,3.57
2018-06-30T11:58:06.079Z,4.00
2018-06-30T12:00:34.660Z,3.43
2018-06-30T12:03:04.694Z,3.10
2018-06-30T12:05:33.307Z,3.40
2018-06-30T12:08:02.986Z,3.30
2018-06-30T12:22:44.392Z,4.00
2018-06-30T12:25:12.803Z,3.60
2018-06-30T12:27:41.421Z,2.80
2018-06-30T12:30:18.623Z,3.10
2018-06-30T12:32:48.499Z,3.57
2018-06-30T12:35:17.288Z,3.10
2018-06-30T12:37:46.094Z,3.10
2018-06-30T12:40:14.955Z,3.70
2018-06-30T12:42:43.511Z,4.20
2018-06-30T12:45:12.036Z,3.20
2018-06-30T12:47:40.465Z,5.07
2018-06-30T12:50:08.885Z,3.30
2018-06-30T12:52:37.210Z,3.53
2018-06-30T12:55:06.627Z,3.20
2018-06-30T12:57:35.987Z,3.10
2018-06-30T13:00:05.366Z,3.20
2018-06-30T13:02:34.325Z,3.30
2018-06-30T13:05:02.961Z,3.70
2018-06-30T13:07:31.537Z,4.00
2018-06-30T13:10:00.338Z,4.00
2018-06-30T13:12:28.951Z,4.17
2018-06-30T13:14:57.863Z,3.00
2018-06-30T13:17:27.248Z,2.90
2018-06-30T13:19:56.426Z,3.40
2018-06-30T13:22:25.193Z,3.27
2018-06-30T13:24:54.969Z,2.90
2018-06-30T13:27:26.590Z,3.30
2018-06-30T13:29:59.466Z,3.60
2018-06-30T14:39:41.621Z,3.27
2018-06-30T14:42:10.338Z,2.77
2018-06-30T14:44:38.706Z,2.80
2018-06-30T14:47:07.352Z,2.53
2018-06-30T14:49:36.123Z,2.10
2018-06-30T14:52:04.675Z,2.70
2018-06-30T14:54:33.206Z,2.07
2018-06-30T14:57:03.820Z,2.47
2018-06-30T14:59:32.298Z,1.70
2018-06-30T15:02:01.161Z,1.87
2018-06-30T15:04:29.785Z,3.60
2018-06-30T15:06:58.659Z,2.00
2018-06-30T15:09:27.430Z,1.70
2018-06-30T15:36:15.318Z,1.30
2018-06-30T15:38:49.245Z,1.50
2018-06-30T15:41:17.809Z,1.33
2018-06-30T15:43:48.796Z,1.57
2018-06-30T15:46:19.338Z,1.53
2018-06-30T15:57:55.609Z,1.20
2018-06-30T16:00:24.356Z,14.10
2018-06-30T16:02:52.741Z,1.33
2018-06-30T16:05:21.145Z,1.63
2018-06-30T16:07:49.520Z,1.40
2018-06-30T16:10:18.121Z,4.40
2018-06-30T16:12:46.613Z,2.03
2018-06-30T16:15:15.009Z,3.60
2018-06-30T16:17:43.350Z,3.20
2018-06-30T16:20:11.707Z,4.30
2018-06-30T16:22:40.313Z,3.80
2018-06-30T16:25:08.763Z,2.77
2018-06-30T16:27:37.141Z,2.57
2018-06-30T16:30:06.673Z,4.20
2018-06-30T16:32:35.920Z,2.67
2018-06-30T16:35:04.502Z,1.83
2018-06-30T16:37:32.800Z,1.03
2018-06-30T16:40:01.117Z,2.60
2018-06-30T16:42:29.991Z,1.97
2018-06-30T16:44:58.409Z,2.90
2018-06-30T16:47:26.845Z,1.33
2018-06-30T16:49:55.232Z,1.93
2018-06-30T16:52:23.627Z,3.33
2018-06-30T16:54:52.372Z,3.43
2018-06-30T16:57:20.737Z,2.70
2018-06-30T16:59:49.594Z,1.50
2018-06-30T17:02:18.062Z,2.80
2018-06-30T17:04:46.356Z,4.63
2018-06-30T17:07:14.757Z,1.67
2018-06-30T17:09:43.080Z,4.27
2018-06-30T17:12:11.428Z,3.90
2018-06-30T17:14:39.796Z,3.50
2018-06-30T17:17:08.180Z,5.50
2018-06-30T17:19:36.530Z,2.40
2018-06-30T17:22:04.902Z,2.13
2018-06-30T17:24:33.286Z,2.67
2018-06-30T17:27:01.683Z,3.07
2018-06-30T17:29:30.095Z,5.10
2018-06-30T17:31:58.454Z,3.50
2018-06-30T17:34:26.833Z,1.83
2018-06-30T17:36:55.193Z,3.00
2018-06-30T17:39:23.656Z,3.33
2018-06-30T17:41:52.036Z,4.87
2018-06-30T17:44:20.388Z,4.03
2018-06-30T17:46:48.749Z,4.93
2018-06-30T17:49:24.314Z,1.43
2018-06-30T17:51:52.653Z,3.87
2018-06-30T17:54:22.079Z,5.87
2018-06-30T17:56:50.766Z,3.00
2018-06-30T17:59:19.098Z,1.47
2018-06-30T18:01:47.703Z,2.47
2018-06-30T18:04:16.108Z,3.23
2018-06-30T18:06:44.485Z,2.90
2018-06-30T18:09:13.792Z,1.97
2018-06-30T18:11:42.810Z,1.07
2018-06-30T18:14:11.577Z,2.47
2018-06-30T18:16:40.934Z,1.63
2018-06-30T18:19:09.333Z,1.47
2018-06-30T18:21:38.709Z,1.10
2018-06-30T18:24:07.060Z,1.30
2018-06-30T18:26:35.435Z,1.50
2018-06-30T18:29:03.913Z,0.87
2018-06-30T18:31:32.325Z,1.23
2018-06-30T18:34:08.116Z,1.30
2018-06-30T18:36:36.485Z,1.03
2018-06-30T18:39:08.426Z,1.10
2018-06-30T18:41:36.910Z,2.00
2018-06-30T18:44:05.403Z,2.83
2018-06-30T18:46:33.772Z,2.13
2018-06-30T18:49:02.648Z,1.93
2018-06-30T18:51:31.012Z,1.83
2018-06-30T18:53:59.374Z,2.53
2018-06-30T18:56:27.861Z,1.50
2018-06-30T18:58:56.335Z,1.63
2018-06-30T19:01:25.010Z,1.27
2018-06-30T19:03:53.734Z,2.17
2018-06-30T19:06:22.086Z,1.57
2018-06-30T19:08:50.672Z,1.90
2018-06-30T19:11:18.977Z,4.30
2018-06-30T19:13:47.394Z,2.10
2018-06-30T19:16:15.762Z,1.30
2018-06-30T19:18:45.239Z,1.73
2018-06-30T19:21:14.780Z,1.10
2018-06-30T19:23:43.711Z,1.40
2018-06-30T19:26:12.884Z,1.20
2018-06-30T19:28:41.466Z,1.23
2018-06-30T19:31:10.022Z,1.60
2018-06-30T19:33:38.393Z,1.70
2018-06-30T19:36:06.977Z,1.50
2018-06-30T19:38:35.417Z,1.73
2018-06-30T19:41:03.903Z,1.87
2018-06-30T19:43:32.355Z,1.50
2018-06-30T19:46:01.100Z,1.10
2018-06-30T19:48:30.326Z,1.17
2018-06-30T19:50:58.893Z,1.40
2018-06-30T19:53:27.224Z,1.70
2018-06-30T19:55:55.719Z,1.73
2018-06-30T19:58:24.089Z,1.37
2018-06-30T20:00:52.775Z,2.50
2018-06-30T20:03:21.082Z,1.10
2018-06-30T20:05:49.528Z,1.77
2018-06-30T20:08:17.871Z,1.17
2018-06-30T20:10:46.440Z,1.60
2018-06-30T20:13:14.836Z,1.10
2018-06-30T20:15:43.545Z,1.30
2018-06-30T20:18:12.033Z,1.67
2018-06-30T20:20:40.463Z,1.00
2018-06-30T20:23:08.911Z,1.57
2018-06-30T20:25:37.260Z,1.30
2018-06-30T20:28:05.812Z,1.60
2018-06-30T20:30:34.262Z,1.03
2018-06-30T20:33:03.247Z,1.10
2018-06-30T20:50:43.851Z,1.13
2018-06-30T20:53:13.209Z,1.13
2018-06-30T20:55:43.606Z,1.00
2018-06-30T20:58:12.046Z,0.80
2018-06-30T21:00:40.461Z,1.17
2018-06-30T21:03:11.334Z,0.80
2018-06-30T21:05:39.733Z,0.73
2018-06-30T21:08:08.228Z,1.30
2018-06-30T21:10:36.864Z,1.70
2018-06-30T21:13:05.430Z,1.03
2018-06-30T21:15:34.565Z,1.63
2018-06-30T21:18:05.615Z,1.43
2018-06-30T21:20:37.066Z,2.20
2018-06-30T21:23:07.556Z,1.20
2018-06-30T21:25:39.058Z,1.10
2018-06-30T21:28:10.431Z,1.50
2018-06-30T21:37:06.790Z,1.50
2018-06-30T21:39:35.231Z,1.50
2018-06-30T21:42:52.698Z,1.23
2018-06-30T21:45:27.097Z,1.70
2018-06-30T21:48:00.530Z,1.60
2018-06-30T21:50:35.628Z,1.07
2018-06-30T21:53:04.205Z,1.40
2018-06-30T21:55:32.694Z,1.20
2018-06-30T21:58:03.080Z,1.30
2018-06-30T22:00:48.159Z,1.37
2018-06-30T22:03:19.910Z,1.20
2018-06-30T22:05:48.784Z,1.20
2018-06-30T22:08:17.558Z,1.47
2018-06-30T22:10:46.845Z,1.27
2018-06-30T22:13:15.749Z,1.83
2018-06-30T22:15:45.451Z,1.43
2018-06-30T22:18:14.768Z,1.10
2018-06-30T22:20:44.228Z,1.00
2018-06-30T22:23:13.833Z,1.30
2018-06-30T22:25:43.205Z,1.30
2018-06-30T22:28:12.371Z,1.40
2018-06-30T22:30:44.990Z,1.10
2018-06-30T22:33:18.165Z,2.20
2018-06-30T22:35:48.702Z,1.80
2018-06-30T22:38:19.031Z,2.30
2018-06-30T22:40:49.694Z,2.30
2018-06-30T22:43:18.781Z,2.33
2018-06-30T22:45:47.611Z,2.30
2018-06-30T22:48:17.863Z,1.83
2018-06-30T22:50:46.980Z,2.37
2018-06-30T22:53:16.386Z,2.60
2018-06-30T22:55:45.083Z,2.07
2018-06-30T22:58:14.313Z,2.07
2018-06-30T23:00:43.130Z,2.67
2018-06-30T23:03:12.807Z,2.47
2018-06-30T23:05:42.227Z,2.63
2018-06-30T23:08:14.020Z,2.30
2018-06-30T23:10:42.623Z,2.40
2018-06-30T23:13:11.316Z,2.20
2018-06-30T23:15:39.836Z,2.10
2018-06-30T23:18:08.322Z,3.43
2018-06-30T23:20:36.813Z,2.13
2018-06-30T23:23:09.365Z,2.00
2018-06-30T23:25:38.453Z,2.37
2018-06-30T23:28:07.119Z,3.70
2018-06-30T23:30:35.961Z,2.60
2018-06-30T23:33:04.432Z,2.80
2018-06-30T23:35:33.554Z,2.87
2018-06-30T23:38:02.691Z,2.63
2018-06-30T23:40:31.125Z,3.00
2018-06-30T23:42:59.661Z,2.67
2018-06-30T23:45:28.130Z,2.80
2018-06-30T23:47:56.576Z,2.87
2018-06-30T23:50:25.076Z,2.40
2018-06-30T23:52:53.494Z,2.03
2018-06-30T23:55:21.969Z,2.20
2018-06-30T23:57:50.434Z,2.57
